Time;durP1;ratioP1;P1;durP2;ratioP2;P2;SDS_P1;SDS_P2;PMS_P1;PMS_P2;Temp;Humidity;BMP_temperature;BMP_pressure;BME280_temperature;BME280_humidity;BME280_pressure;Samples;Min_cycle;Max_cycle;Signal;HPM_P1;HPM_P2
2022/07/26 00:01:36;;;;;;;8.75;7.10;;;;;;;18.33;86.89;100241.61;1758602;80;20873;-89
2022/07/26 00:04:04;;;;;;;11.97;7.22;;;;;;;18.33;86.79;100238.13;1758722;78;20908;-90
2022/07/26 00:06:30;;;;;;;10.03;8.18;;;;;;;18.32;86.69;100238.62;1758669;81;21056;-90
2022/07/26 00:08:57;;;;;;;9.15;8.28;;;;;;;18.30;86.68;100238.44;1758305;81;21306;-90
2022/07/26 00:11:24;;;;;;;9.68;7.72;;;;;;;18.29;86.87;100237.58;1758719;81;20897;-88
2022/07/26 00:13:51;;;;;;;11.22;8.48;;;;;;;18.30;86.91;100239.77;1758451;81;21464;-88
2022/07/26 00:16:19;;;;;;;9.45;7.37;;;;;;;18.28;86.94;100237.25;1758546;80;20947;-89
2022/07/26 00:18:46;;;;;;;7.53;6.90;;;;;;;18.27;87.02;100234.24;1758447;81;21827;-89
2022/07/26 00:21:13;;;;;;;9.25;7.25;;;;;;;18.26;86.95;100233.91;1758634;80;20913;-89
2022/07/26 00:23:41;;;;;;;8.08;7.37;;;;;;;18.25;86.92;100226.92;1758379;81;21494;-90
2022/07/26 00:26:07;;;;;;;7.83;7.03;;;;;;;18.22;87.05;100225.41;1758329;81;20936;-88
2022/07/26 00:28:34;;;;;;;11.12;8.43;;;;;;;18.24;87.19;100226.59;1758490;80;20935;-89
2022/07/26 00:31:01;;;;;;;10.38;8.48;;;;;;;18.23;87.29;100222.28;1758380;80;21130;-90
2022/07/26 00:33:27;;;;;;;10.30;8.63;;;;;;;18.21;87.42;100217.12;1758272;80;20935;-89
2022/07/26 00:35:54;;;;;;;12.35;9.23;;;;;;;18.19;87.33;100209.80;1758518;81;20971;-88
2022/07/26 00:38:20;;;;;;;12.23;8.18;;;;;;;18.17;87.62;100213.59;1758467;80;20955;-89
2022/07/26 00:40:47;;;;;;;8.70;7.80;;;;;;;18.17;87.78;100212.27;1758650;81;20920;-89
2022/07/26 00:43:15;;;;;;;8.73;7.92;;;;;;;18.18;87.90;100215.25;1758632;80;20837;-89
2022/07/26 00:45:42;;;;;;;7.47;6.87;;;;;;;18.16;87.84;100212.77;1758295;81;20905;-90
2022/07/26 00:48:09;;;;;;;7.62;7.00;;;;;;;18.16;87.80;100209.25;1758551;81;20877;-90
2022/07/26 00:50:38;;;;;;;8.45;7.65;;;;;;;18.15;87.44;100211.58;1758509;81;20869;-90
2022/07/26 00:53:05;;;;;;;8.18;7.40;;;;;;;18.11;87.36;100206.23;1758684;81;20892;-89
2022/07/26 00:55:31;;;;;;;9.18;7.53;;;;;;;18.09;87.43;100205.05;1758262;81;21080;-90
2022/07/26 00:58:00;;;;;;;9.43;8.20;;;;;;;18.07;87.42;100208.34;1758654;79;20848;-90
2022/07/26 01:00:27;;;;;;;7.72;7.03;;;;;;;18.04;87.38;100203.34;1758562;81;21366;-89
2022/07/26 01:02:55;;;;;;;8.10;7.30;;;;;;;18.00;87.57;100212.08;1758659;81;20912;-89
2022/07/26 01:05:23;;;;;;;9.15;8.35;;;;;;;17.99;87.83;100205.63;1758493;81;20971;-89
2022/07/26 01:07:50;;;;;;;8.10;7.08;;;;;;;17.99;87.80;100204.30;1758461;81;21184;-88
2022/07/26 01:10:17;;;;;;;9.10;7.37;;;;;;;17.97;87.67;100202.28;1758760;81;20916;-89
2022/07/26 01:12:45;;;;;;;8.58;7.80;;;;;;;17.95;87.64;100193.14;1758563;81;20888;-89
2022/07/26 01:15:13;;;;;;;8.48;7.65;;;;;;;17.94;87.69;100197.26;1759552;81;20948;-89
2022/07/26 01:17:40;;;;;;;10.13;6.95;;;;;;;17.93;87.74;100200.41;1760469;81;20920;-89
2022/07/26 01:20:08;;;;;;;8.50;7.58;;;;;;;17.91;87.78;100194.42;1759557;81;21125;-89
2022/07/26 01:22:39;;;;;;;8.15;7.35;;;;;;;17.90;87.77;100194.59;1759084;81;20912;-90
2022/07/26 01:25:06;;;;;;;7.67;6.95;;;;;;;17.87;87.72;100189.56;1758640;81;20876;-90
2022/07/26 01:27:37;;;;;;;7.83;7.17;;;;;;;17.84;87.81;100189.37;1758447;81;20939;-90
2022/07/26 01:30:02;;;;;;;8.00;7.30;;;;;;;17.81;88.01;100189.66;1758196;81;20900;-89
2022/07/26 01:32:29;;;;;;;8.45;7.65;;;;;;;17.79;88.20;100193.77;1758642;81;21142;-89
2022/07/26 01:34:55;;;;;;;8.93;6.83;;;;;;;17.78;88.28;100190.77;1758449;80;20940;-87
2022/07/26 01:37:22;;;;;;;7.58;6.78;;;;;;;17.77;88.51;100187.78;1759310;80;20908;-88
2022/07/26 01:39:49;;;;;;;7.67;6.62;;;;;;;17.78;88.58;100191.27;1759220;81;21374;-89
2022/07/26 01:42:17;;;;;;;8.70;7.80;;;;;;;17.75;88.48;100188.42;1759082;80;20880;-88
2022/07/26 01:44:43;;;;;;;7.92;7.17;;;;;;;17.72;88.60;100191.38;1760204;80;21064;-88
2022/07/26 01:47:10;;;;;;;9.20;8.30;;;;;;;17.70;88.66;100194.67;1758962;80;20995;-89
2022/07/26 01:49:36;;;;;;;9.73;7.42;;;;;;;17.69;88.74;100189.51;1758619;80;20833;-89
2022/07/26 01:52:03;;;;;;;8.53;7.72;;;;;;;17.67;88.78;100189.64;1758510;81;20857;-89
2022/07/26 01:54:30;;;;;;;8.33;7.47;;;;;;;17.66;89.01;100200.42;1758498;81;20971;-89
2022/07/26 01:56:58;;;;;;;9.10;8.20;;;;;;;17.66;89.17;100203.08;1758208;81;21154;-88
2022/07/26 01:59:24;;;;;;;10.40;8.45;;;;;;;17.64;89.15;100206.36;1758607;81;21417;-89
2022/07/26 02:01:51;;;;;;;8.50;6.90;;;;;;;17.63;89.31;100206.00;1758679;81;20964;-89
2022/07/26 02:07:02;;;;;;;9.30;7.60;;;;;;;17.62;89.19;100206.50;1758872;80;20872;-90
2022/07/26 02:09:29;;;;;;;8.43;7.72;;;;;;;17.60;88.94;100197.86;1758501;81;21081;-89
2022/07/26 02:11:55;;;;;;;7.28;6.65;;;;;;;17.59;88.71;100205.48;1758791;81;20868;-90
2022/07/26 02:14:22;;;;;;;7.62;6.92;;;;;;;17.58;88.57;100203.80;1759021;81;20924;-89
2022/07/26 02:16:48;;;;;;;9.95;7.55;;;;;;;17.57;88.57;100207.45;1759681;78;20861;-89
2022/07/26 02:19:14;;;;;;;7.83;7.22;;;;;;;17.53;88.73;100197.61;1761159;81;20846;-88
2022/07/26 02:21:41;;;;;;;8.00;7.10;;;;;;;17.53;88.77;100195.46;1760571;81;21513;-89
2022/07/26 02:24:07;;;;;;;8.03;7.33;;;;;;;17.52;88.96;100199.94;1758880;81;20849;-88
2022/07/26 02:26:34;;;;;;;7.92;7.22;;;;;;;17.52;89.11;100202.59;1758858;81;20892;-89
2022/07/26 02:29:01;;;;;;;10.43;7.00;;;;;;;17.53;89.20;100204.24;1758451;80;21046;-89
2022/07/26 02:31:27;;;;;;;7.75;6.95;;;;;;;17.52;89.17;100207.03;1758726;80;20920;-87
2022/07/26 02:33:54;;;;;;;16.10;7.90;;;;;;;17.51;89.20;100208.03;1759480;80;21213;-88
2022/07/26 02:36:20;;;;;;;8.08;7.37;;;;;;;17.50;89.24;100207.20;1759329;81;20923;-89
2022/07/26 02:38:47;;;;;;;8.23;7.15;;;;;;;17.51;89.28;100209.35;1759087;80;20936;-88
2022/07/26 02:41:13;;;;;;;9.30;7.83;;;;;;;17.50;89.23;100216.98;1758911;81;20967;-88
2022/07/26 02:43:40;;;;;;;7.42;6.72;;;;;;;17.50;89.35;100222.28;1758607;81;20927;-87
2022/07/26 02:46:09;;;;;;;7.53;6.75;;;;;;;17.50;89.29;100221.78;1739419;80;20953;-89
2022/07/26 02:48:35;;;;;;;7.60;7.00;;;;;;;17.49;89.35;100222.75;1745331;81;20933;-89
2022/07/26 02:51:02;;;;;;;8.28;7.67;;;;;;;17.51;89.40;100223.94;1745460;80;20929;-89
2022/07/26 02:53:29;;;;;;;8.48;7.58;;;;;;;17.51;89.24;100226.09;1745561;80;20900;-89
2022/07/26 02:55:55;;;;;;;12.30;7.20;;;;;;;17.50;89.21;100231.06;1745522;81;20869;-89
2022/07/26 02:58:23;;;;;;;7.58;6.97;;;;;;;17.52;89.20;100233.55;1745648;82;21127;-89
2022/07/26 03:00:50;;;;;;;7.72;6.90;;;;;;;17.53;89.26;100236.06;1745189;81;21031;-91
2022/07/26 03:03:16;;;;;;;7.17;6.47;;;;;;;17.55;89.19;100239.41;1745137;82;20857;-91
2022/07/26 03:05:43;;;;;;;8.75;6.25;;;;;;;17.56;89.15;100238.91;1745191;82;20905;-91
2022/07/26 03:08:10;;;;;;;9.70;6.45;;;;;;;17.56;89.04;100238.44;1745341;81;21305;-90
2022/07/26 03:10:36;;;;;;;6.60;6.00;;;;;;;17.58;89.03;100236.44;1745306;81;21245;-91
2022/07/26 03:13:02;;;;;;;6.97;6.20;;;;;;;17.60;88.97;100241.11;1745731;81;20913;-90
2022/07/26 03:15:29;;;;;;;7.20;6.50;;;;;;;17.63;89.13;100237.83;1745661;81;20933;-90
2022/07/26 03:17:55;;;;;;;7.22;6.60;;;;;;;17.65;88.61;100235.36;1745237;80;20940;-91
2022/07/26 03:20:23;;;;;;;7.53;6.67;;;;;;;17.67;88.70;100237.37;1745245;82;20916;-90
2022/07/26 03:22:49;;;;;;;7.62;6.75;;;;;;;17.67;88.42;100236.55;1745241;81;21132;-90
2022/07/26 03:25:15;;;;;;;7.25;6.55;;;;;;;17.71;88.31;100241.41;1745493;82;21023;-91
2022/07/26 03:27:42;;;;;;;7.22;6.03;;;;;;;17.73;88.23;100239.45;1746186;81;20925;-90
2022/07/26 03:30:11;;;;;;;6.40;5.90;;;;;;;17.77;88.15;100234.70;1746684;82;20932;-89
2022/07/26 03:32:37;;;;;;;8.28;6.03;;;;;;;17.80;87.97;100239.20;1746944;81;20869;-90
2022/07/26 03:35:05;;;;;;;6.37;5.85;;;;;;;17.81;87.90;100238.26;1747907;78;21099;-90
2022/07/26 03:37:32;;;;;;;8.13;6.97;;;;;;;17.86;87.88;100238.31;1747845;78;20878;-90
2022/07/26 03:39:58;;;;;;;8.23;7.10;;;;;;;17.90;87.80;100239.69;1746854;81;20882;-91
2022/07/26 03:42:25;;;;;;;8.45;6.55;;;;;;;17.94;87.79;100241.03;1745534;80;20861;-91
2022/07/26 03:44:51;;;;;;;8.10;6.97;;;;;;;17.99;87.75;100244.92;1745386;81;21433;-90
2022/07/26 03:47:18;;;;;;;9.38;6.42;;;;;;;18.05;87.59;100247.45;1752823;80;21094;-90
2022/07/26 03:49:46;;;;;;;11.28;6.47;;;;;;;18.12;87.26;100249.02;1759279;78;20861;-91
2022/07/26 03:52:12;;;;;;;6.87;6.28;;;;;;;18.16;86.93;100255.23;1758640;81;20975;-91
2022/07/26 03:54:39;;;;;;;8.18;6.28;;;;;;;18.20;86.54;100257.91;1758424;81;20865;-91
2022/07/26 03:57:06;;;;;;;7.20;6.25;;;;;;;18.25;86.18;100261.43;1758534;81;20877;-91
2022/07/26 03:59:33;;;;;;;7.65;7.03;;;;;;;18.31;85.70;100263.98;1758964;81;21206;-91
2022/07/26 04:01:59;;;;;;;8.58;5.70;;;;;;;18.35;85.34;100259.55;1759176;81;20876;-91
2022/07/26 04:04:26;;;;;;;9.05;6.85;;;;;;;18.40;84.90;100263.91;1759827;81;20908;-90
2022/07/26 04:06:52;;;;;;;6.65;6.05;;;;;;;18.47;84.73;100261.97;1761254;78;20908;-89
2022/07/26 04:09:19;;;;;;;7.03;6.33;;;;;;;18.53;84.62;100258.22;1760961;81;20881;-90
2022/07/26 04:11:47;;;;;;;9.43;6.62;;;;;;;18.58;84.50;100259.91;1759443;81;21934;-91
2022/07/26 04:14:14;;;;;;;6.60;5.97;;;;;;;18.68;84.33;100252.38;1758813;81;20924;-90
2022/07/26 04:16:40;;;;;;;8.10;6.78;;;;;;;18.76;84.13;100248.44;1758533;81;21007;-90
2022/07/26 04:19:06;;;;;;;7.40;6.70;;;;;;;18.86;83.69;100246.56;1758657;81;20920;-90
2022/07/26 04:21:33;;;;;;;8.90;6.20;;;;;;;18.96;83.07;100244.63;1758545;81;20936;-90
2022/07/26 04:24:00;;;;;;;6.80;6.20;;;;;;;19.10;82.58;100252.55;1759293;81;21758;-89
2022/07/26 04:26:28;;;;;;;7.22;6.10;;;;;;;19.24;82.22;100244.48;1759368;81;21355;-88
2022/07/26 04:28:55;;;;;;;6.75;6.22;;;;;;;19.48;81.89;100241.63;1759012;81;21429;-91
2022/07/26 04:31:22;;;;;;;9.13;6.47;;;;;;;19.75;80.93;100238.77;1758632;80;20932;-91
2022/07/26 04:33:49;;;;;;;7.05;5.72;;;;;;;20.00;79.54;100234.34;1758614;81;20872;-91
2022/07/26 04:36:15;;;;;;;6.78;5.80;;;;;;;20.20;78.37;100241.53;1758514;81;21218;-91
2022/07/26 04:38:42;;;;;;;6.58;5.83;;;;;;;20.37;77.33;100241.07;1758483;81;21378;-90
2022/07/26 04:41:08;;;;;;;6.83;6.12;;;;;;;20.66;76.45;100245.94;1758454;81;20884;-92
2022/07/26 04:43:35;;;;;;;7.47;6.55;;;;;;;21.06;75.70;100249.56;1758403;81;20920;-92
2022/07/26 04:46:01;;;;;;;6.55;5.95;;;;;;;21.56;74.10;100252.12;1758534;81;20995;-91
2022/07/26 04:48:28;;;;;;;6.15;5.62;;;;;;;22.08;72.20;100248.88;1747085;81;21134;-91
2022/07/26 04:50:54;;;;;;;8.40;5.90;;;;;;;22.58;70.18;100248.05;1745168;80;21331;-91
2022/07/26 04:53:21;;;;;;;6.50;5.83;;;;;;;22.97;68.45;100245.20;1745063;81;20948;-90
2022/07/26 04:55:50;;;;;;;6.55;5.95;;;;;;;23.28;66.40;100247.75;1744957;82;20874;-91
2022/07/26 04:58:17;;;;;;;6.12;5.47;;;;;;;23.62;65.31;100251.70;1745148;81;20885;-90
2022/07/26 05:00:43;;;;;;;5.35;4.92;;;;;;;24.03;64.42;100247.67;1745085;82;21118;-89
2022/07/26 05:03:10;;;;;;;5.85;5.45;;;;;;;24.50;62.92;100239.12;1745501;81;20999;-92
2022/07/26 05:05:37;;;;;;;7.53;5.42;;;;;;;24.98;61.19;100245.99;1745941;78;20953;-89
2022/07/26 05:08:04;;;;;;;5.35;4.85;;;;;;;25.36;59.44;100246.16;1746104;82;20933;-90
2022/07/26 05:10:37;;;;;;;5.97;5.47;;;;;;;25.76;58.38;100254.41;1747103;78;21035;-91
2022/07/26 05:13:06;;;;;;;6.17;5.70;;;;;;;26.20;57.33;100251.27;1746961;82;21154;-90
2022/07/26 05:15:39;;;;;;;6.58;6.08;;;;;;;26.71;56.22;100241.84;1746035;81;20932;-91
2022/07/26 05:18:05;;;;;;;6.47;5.58;;;;;;;27.13;54.44;100242.95;1745671;78;20901;-91
2022/07/26 05:20:32;;;;;;;6.65;6.15;;;;;;;27.21;53.23;100250.31;1747824;78;20929;-91
2022/07/26 05:22:59;;;;;;;8.60;5.55;;;;;;;27.12;52.98;100243.44;1747766;78;20991;-89
2022/07/26 05:25:28;;;;;;;6.75;6.15;;;;;;;26.96;52.81;100240.67;1745532;81;21161;-91
2022/07/26 05:27:54;;;;;;;7.12;5.60;;;;;;;26.70;53.05;100243.38;1745306;82;20912;-91
2022/07/26 05:30:22;;;;;;;11.30;5.95;;;;;;;26.58;53.37;100244.53;1744912;82;21011;-91
2022/07/26 05:32:49;;;;;;;8.60;5.53;;;;;;;26.70;53.96;100244.20;1745103;81;20945;-91
2022/07/26 05:35:15;;;;;;;6.92;6.22;;;;;;;26.95;53.98;100240.91;1745152;81;20920;-91
2022/07/26 05:37:42;;;;;;;7.97;6.00;;;;;;;27.08;52.54;100240.36;1745064;81;21178;-91
2022/07/26 05:40:09;;;;;;;6.03;5.62;;;;;;;26.96;52.49;100241.20;1744961;81;20881;-91
2022/07/26 05:42:36;;;;;;;6.40;5.80;;;;;;;26.75;52.77;100239.58;1745309;81;20960;-90
2022/07/26 05:45:05;;;;;;;6.72;6.03;;;;;;;26.51;53.35;100235.08;1745118;80;20984;-90
2022/07/26 05:47:32;;;;;;;7.67;6.87;;;;;;;26.28;53.70;100231.45;1745340;80;20941;-91
2022/07/26 05:49:58;;;;;;;9.90;6.35;;;;;;;26.02;54.44;100241.09;1745387;81;21412;-89
2022/07/26 05:52:25;;;;;;;6.95;6.17;;;;;;;25.82;55.17;100232.12;1745099;82;20826;-90
2022/07/26 05:54:51;;;;;;;6.53;5.90;;;;;;;25.70;55.48;100237.25;1745184;80;20961;-91
2022/07/26 05:57:18;;;;;;;6.28;5.70;;;;;;;25.57;55.90;100239.36;1745127;81;20865;-91
2022/07/26 05:59:44;;;;;;;7.90;6.40;;;;;;;25.42;56.53;100237.33;1746044;81;20968;-90
2022/07/26 06:02:10;;;;;;;7.90;6.58;;;;;;;25.26;56.79;100241.16;1747883;81;21081;-89
2022/07/26 06:04:37;;;;;;;7.08;6.33;;;;;;;25.18;57.25;100235.91;1746997;81;20862;-91
2022/07/26 06:07:03;;;;;;;7.33;6.70;;;;;;;25.14;57.50;100242.70;1745483;80;20964;-92
2022/07/26 06:09:30;;;;;;;8.48;7.03;;;;;;;25.10;57.47;100237.41;1745601;81;21367;-91
2022/07/26 06:11:57;;;;;;;10.25;6.72;;;;;;;25.05;57.92;100233.97;1745810;81;20865;-91
2022/07/26 06:14:23;;;;;;;8.70;7.28;;;;;;;25.03;58.36;100232.84;1745636;82;21248;-88
2022/07/26 06:16:50;;;;;;;9.55;7.10;;;;;;;25.06;57.91;100232.10;1745360;81;20877;-88
2022/07/26 06:19:16;;;;;;;8.38;7.58;;;;;;;25.08;57.92;100236.77;1745512;81;20823;-89
2022/07/26 06:21:44;;;;;;;9.15;7.62;;;;;;;25.13;57.83;100237.03;1735302;82;20975;-90
2022/07/26 06:24:11;;;;;;;7.80;6.85;;;;;;;25.13;57.63;100236.51;1745852;81;21449;-90
2022/07/26 06:26:37;;;;;;;8.15;6.30;;;;;;;25.11;57.93;100230.50;1745865;82;21164;-90
2022/07/26 06:29:04;;;;;;;6.70;6.00;;;;;;;25.12;58.28;100232.67;1745646;82;20936;-90
2022/07/26 06:31:31;;;;;;;9.50;7.12;;;;;;;25.12;58.32;100225.44;1745644;81;20961;-91
2022/07/26 06:33:57;;;;;;;7.28;6.25;;;;;;;25.13;58.46;100227.11;1745762;82;20889;-92
2022/07/26 06:36:24;;;;;;;6.22;5.78;;;;;;;25.19;58.38;100228.19;1746021;81;20968;-92
2022/07/26 06:38:50;;;;;;;10.75;6.28;;;;;;;25.27;58.35;100222.67;1746286;81;21123;-92
2022/07/26 06:41:19;;;;;;;6.33;5.83;;;;;;;25.34;58.63;100224.05;1746215;81;22083;-91
2022/07/26 06:43:46;;;;;;;6.95;6.37;;;;;;;25.35;58.73;100231.09;1746101;81;20889;-91
2022/07/26 06:46:12;;;;;;;7.95;6.65;;;;;;;25.40;58.40;100232.66;1735382;82;20941;-91
2022/07/26 06:48:39;;;;;;;7.10;6.40;;;;;;;25.43;57.94;100233.59;1735796;82;20920;-90
2022/07/26 06:51:08;;;;;;;8.58;5.83;;;;;;;25.46;57.68;100237.25;1754472;82;21240;-91
2022/07/26 06:53:35;;;;;;;7.47;6.87;;;;;;;25.50;57.46;100226.91;1735215;82;20952;-90
2022/07/26 06:56:01;;;;;;;11.10;6.10;;;;;;;25.58;57.28;100229.44;1754036;81;20995;-89
2022/07/26 06:58:28;;;;;;;6.78;6.17;;;;;;;25.67;57.07;100224.73;1754001;81;21001;-90
2022/07/26 07:00:55;;;;;;;8.58;6.65;;;;;;;25.75;56.90;100224.56;1754043;80;21453;-89
2022/07/26 07:03:21;;;;;;;6.80;6.30;;;;;;;25.89;56.70;100222.77;1753601;81;21585;-91
2022/07/26 07:05:51;;;;;;;6.75;6.25;;;;;;;26.02;56.26;100229.00;1753720;82;20837;-90
2022/07/26 07:08:20;;;;;;;7.17;6.17;;;;;;;26.17;55.71;100218.09;1753580;81;20896;-90
2022/07/26 07:10:46;;;;;;;6.10;5.60;;;;;;;26.33;55.46;100220.89;1753629;81;20904;-91
2022/07/26 07:13:12;;;;;;;6.60;6.03;;;;;;;26.70;54.89;100224.55;1753794;82;20940;-91
2022/07/26 07:15:39;;;;;;;6.08;5.47;;;;;;;27.20;54.35;100221.69;1754202;81;21226;-90
2022/07/26 07:18:05;;;;;;;5.53;5.12;;;;;;;27.80;53.65;100221.49;1753779;82;20873;-90
2022/07/26 07:20:33;;;;;;;6.47;5.83;;;;;;;28.45;52.38;100221.31;1754256;80;20940;-92
2022/07/26 07:23:05;;;;;;;5.78;5.08;;;;;;;29.07;50.90;100217.88;1754107;81;21018;-93
2022/07/26 07:25:32;;;;;;;5.87;4.90;;;;;;;29.67;49.18;100216.69;1754612;81;20885;-92
2022/07/26 07:27:59;;;;;;;4.75;4.45;;;;;;;30.26;47.48;100212.03;1754750;81;21231;-92
2022/07/26 07:30:26;;;;;;;4.97;4.58;;;;;;;30.71;45.67;100217.78;1753589;82;21010;-89
2022/07/26 07:32:54;;;;;;;6.12;3.60;;;;;;;31.07;45.25;100211.03;1753971;81;20940;-91
2022/07/26 07:35:21;;;;;;;3.87;3.65;;;;;;;31.47;44.11;100214.34;1753854;81;20960;-93
2022/07/26 07:37:47;;;;;;;4.22;3.92;;;;;;;31.92;43.44;100218.99;1753603;81;20845;-94
2022/07/26 07:40:14;;;;;;;6.05;4.40;;;;;;;32.33;42.68;100205.64;1753904;81;21359;-91
2022/07/26 07:42:41;;;;;;;4.37;3.98;;;;;;;32.73;41.51;100216.08;1753718;81;21504;-91
2022/07/26 07:45:10;;;;;;;4.60;4.30;;;;;;;33.04;41.12;100210.00;1754158;82;20892;-92
2022/07/26 07:47:37;;;;;;;9.78;5.15;;;;;;;33.32;40.84;100212.82;1754517;80;20956;-91
2022/07/26 07:50:05;;;;;;;7.28;4.15;;;;;;;33.55;40.23;100208.49;1759228;81;20979;-92
2022/07/26 07:52:32;;;;;;;4.80;4.30;;;;;;;33.69;39.39;100208.94;1759098;81;22009;-92
2022/07/26 07:54:59;;;;;;;6.28;4.20;;;;;;;33.65;39.08;100205.08;1759305;80;20896;-92
2022/07/26 07:57:26;;;;;;;4.30;4.00;;;;;;;33.62;38.66;100200.98;1758916;80;20890;-92
2022/07/26 07:59:53;;;;;;;5.33;4.03;;;;;;;33.37;39.39;100197.92;1742120;81;20905;-91
2022/07/26 08:02:19;;;;;;;4.78;4.33;;;;;;;33.24;39.23;100197.24;1759397;81;20956;-92
2022/07/26 08:04:46;;;;;;;6.30;4.25;;;;;;;33.15;39.19;100193.84;1759328;81;21235;-93
2022/07/26 08:07:13;;;;;;;6.12;4.53;;;;;;;33.04;39.04;100190.98;1759208;81;20911;-92
2022/07/26 08:09:40;;;;;;;4.08;3.77;;;;;;;32.99;39.27;100186.81;1759490;81;20888;-90
2022/07/26 08:12:07;;;;;;;4.97;3.83;;;;;;;33.00;39.22;100178.97;1759454;81;20920;-90
2022/07/26 08:14:33;;;;;;;3.90;3.60;;;;;;;33.13;38.96;100176.45;1759673;81;20963;-91
2022/07/26 08:17:00;;;;;;;5.08;4.08;;;;;;;33.39;38.44;100179.46;1759618;81;21381;-92
2022/07/26 08:19:28;;;;;;;4.97;3.60;;;;;;;33.52;37.71;100177.71;1759125;81;20904;-91
2022/07/26 08:21:55;;;;;;;4.08;3.77;;;;;;;33.56;37.69;100168.52;1759662;81;20924;-89
2022/07/26 08:24:22;;;;;;;4.28;3.87;;;;;;;33.55;37.65;100170.94;1759068;81;21015;-91
2022/07/26 08:26:52;;;;;;;3.47;2.90;;;;;;;33.62;36.88;100164.81;1759214;80;21378;-91
2022/07/26 08:29:17;;;;;;;4.08;3.47;;;;;;;33.51;37.17;100164.39;1759295;81;21164;-91
2022/07/26 08:31:44;;;;;;;3.60;3.40;;;;;;;33.35;37.39;100166.94;1759124;80;20992;-91
2022/07/26 08:34:13;;;;;;;3.27;2.80;;;;;;;33.13;37.40;100171.02;1759046;81;20983;-91
2022/07/26 08:36:39;;;;;;;4.12;3.60;;;;;;;32.82;37.66;100171.94;1758899;80;20900;-91
2022/07/26 08:39:08;;;;;;;4.10;3.30;;;;;;;32.50;38.19;100173.59;1759089;81;20915;-90
2022/07/26 08:41:35;;;;;;;4.55;4.10;;;;;;;32.32;38.52;100169.24;1759035;81;21174;-90
2022/07/26 08:44:07;;;;;;;7.30;3.58;;;;;;;32.41;38.90;100160.42;1759128;81;20951;-89
2022/07/26 08:46:39;;;;;;;5.87;5.37;;;;;;;32.64;38.75;100160.00;1758896;80;20975;-90
2022/07/26 08:49:06;;;;;;;3.50;3.20;;;;;;;32.91;36.50;100164.72;1735283;81;20864;-89
2022/07/26 08:51:33;;;;;;;4.60;4.20;;;;;;;33.31;36.46;100171.23;1719782;83;20987;-91
2022/07/26 08:54:00;;;;;;;3.85;3.50;;;;;;;33.41;35.84;100178.12;1720073;83;21553;-93
2022/07/26 08:56:28;;;;;;;5.53;3.52;;;;;;;33.39;36.13;100179.46;1720205;82;20904;-91
2022/07/26 08:58:56;;;;;;;8.28;3.30;;;;;;;33.15;36.36;100191.97;1719992;83;20904;-90
2022/07/26 09:01:22;;;;;;;4.25;2.67;;;;;;;32.77;38.16;100205.82;1719701;83;20975;-91
2022/07/26 09:03:49;;;;;;;4.87;2.90;;;;;;;32.04;39.24;100213.02;1719679;83;20852;-88
2022/07/26 09:06:19;;;;;;;7.05;2.58;;;;;;;31.01;40.93;100220.09;1720036;83;21097;-90
2022/07/26 09:08:50;;;;;;;6.45;2.47;;;;;;;30.00;42.50;100215.44;1719918;82;20983;-90
2022/07/26 09:11:29;;;;;;;2.47;1.55;;;;;;;29.05;44.26;100214.58;1720086;83;20888;-91
2022/07/26 09:14:03;;;;;;;5.00;1.62;;;;;;;28.34;44.55;100219.32;1685197;83;20921;-90
2022/07/26 09:16:30;;;;;;;3.27;1.90;;;;;;;27.70;45.86;100231.89;1660508;85;20929;-89
2022/07/26 09:19:17;;;;;;;3.15;1.37;;;;;;;27.12;46.64;100248.00;1684803;84;20869;-91
2022/07/26 09:21:45;;;;;;;4.67;1.60;;;;;;;26.52;47.83;100248.83;1687697;85;21457;-89
2022/07/26 09:24:15;;;;;;;2.70;2.05;;;;;;;25.86;49.12;100244.13;1687668;84;20948;-92
2022/07/26 09:26:42;;;;;;;2.10;1.50;;;;;;;25.44;49.90;100236.61;1687280;85;21031;-92
2022/07/26 09:29:10;;;;;;;2.22;1.80;;;;;;;25.03;51.40;100225.28;1599518;86;21331;-91
2022/07/26 09:31:39;;;;;;;3.72;1.75;;;;;;;24.70;52.28;100211.63;1685645;85;20957;-89
2022/07/26 09:34:06;;;;;;;7.40;2.33;;;;;;;24.37;53.09;100202.80;1661593;84;20918;-89
2022/07/26 09:36:32;;;;;;;3.98;1.75;;;;;;;24.09;53.77;100202.20;1687041;81;21119;-89
2022/07/26 09:39:02;;;;;;;3.15;1.60;;;;;;;23.84;55.04;100207.09;1662370;83;20925;-91
2022/07/26 09:41:34;;;;;;;8.38;1.52;;;;;;;23.54;56.32;100212.98;1685568;85;20945;-90
2022/07/26 09:44:04;;;;;;;5.15;2.27;;;;;;;23.28;57.47;100206.80;1660811;85;21237;-91
2022/07/26 09:46:34;;;;;;;5.37;1.92;;;;;;;23.05;58.83;100206.86;1682490;84;20979;-90
2022/07/26 09:49:20;;;;;;;3.45;2.62;;;;;;;22.79;59.90;100202.77;1675979;84;21020;-91
2022/07/26 09:51:50;;;;;;;2.95;1.50;;;;;;;22.60;60.60;100204.61;1745772;81;20862;-92
2022/07/26 09:54:21;;;;;;;1.77;1.37;;;;;;;22.40;61.66;100204.27;1745941;81;21378;-90
2022/07/26 09:56:51;;;;;;;2.33;2.05;;;;;;;22.27;61.88;100198.19;1740875;81;21931;-92
2022/07/26 09:59:21;;;;;;;1.90;1.67;;;;;;;22.15;62.48;100205.77;1735139;82;21390;-91
2022/07/26 10:03:34;;;;;;;4.55;2.37;;;;;;;22.03;63.57;100204.49;1857330;76;23251;-89
2022/07/26 10:06:04;;;;;;;2.65;2.33;;;;;;;21.89;64.09;100214.92;1825449;78;20947;-90
2022/07/26 10:08:32;;;;;;;6.12;2.25;;;;;;;21.83;64.56;100213.45;1825638;78;21150;-89
2022/07/26 10:11:05;;;;;;;6.20;1.45;;;;;;;21.77;66.00;100217.67;1825063;78;21349;-89
2022/07/26 10:13:32;;;;;;;3.90;2.27;;;;;;;21.72;66.75;100214.20;1824262;78;20871;-90
2022/07/26 10:16:00;;;;;;;4.33;2.42;;;;;;;21.71;65.79;100211.69;1823579;78;20919;-91
2022/07/26 10:18:42;;;;;;;3.02;2.65;;;;;;;21.70;65.53;100214.88;1823581;78;21384;-92
2022/07/26 10:21:19;;;;;;;5.08;2.10;;;;;;;21.72;66.50;100209.34;1823367;78;21291;-91
2022/07/26 10:23:50;;;;;;;2.80;1.92;;;;;;;21.71;67.72;100207.18;1823387;78;21451;-91
2022/07/26 10:26:35;;;;;;;2.55;2.25;;;;;;;21.75;68.64;100208.19;1823776;78;20864;-91
2022/07/26 10:29:22;;;;;;;3.17;2.25;;;;;;;21.78;69.02;100209.16;1823466;78;20959;-91
2022/07/26 10:32:06;;;;;;;6.00;3.60;;;;;;;21.81;69.54;100213.66;1824008;78;20864;-91
2022/07/26 10:34:37;;;;;;;;;;;;;;;21.83;70.00;100216.13;1826208;78;21303;-91
2022/07/26 10:37:07;;;;;;;3.37;2.25;;;;;;;21.87;70.06;100220.94;1823699;78;20070;-89
2022/07/26 10:39:34;;;;;;;3.22;2.98;;;;;;;21.90;70.22;100211.77;1823882;78;20943;-90
2022/07/26 10:42:07;;;;;;;2.05;1.95;;;;;;;21.96;70.36;100221.72;1823477;78;20986;-90
2022/07/26 10:44:40;;;;;;;2.80;2.60;;;;;;;21.99;70.52;100224.54;1823598;78;21451;-92
2022/07/26 10:47:14;;;;;;;3.08;2.77;;;;;;;22.03;70.62;100224.52;1823419;78;21301;-91
2022/07/26 10:49:55;;;;;;;3.10;2.80;;;;;;;22.07;70.97;100238.68;1824076;78;21400;-91
2022/07/26 10:52:29;;;;;;;3.62;3.20;;;;;;;22.10;71.25;100230.33;1792042;78;20880;-92
2022/07/26 10:55:04;;;;;;;3.67;3.37;;;;;;;22.13;71.46;100236.64;1818927;78;21408;-91
2022/07/26 10:57:40;;;;;;;4.90;3.40;;;;;;;22.15;71.19;100239.15;1823258;78;21491;-89
2022/07/26 11:00:19;;;;;;;4.60;4.00;;;;;;;22.18;70.71;100238.78;1823454;78;21134;-89
2022/07/26 11:02:49;;;;;;;6.17;3.70;;;;;;;22.21;70.61;100234.92;1824979;78;20840;-90
2022/07/26 11:05:16;;;;;;;4.25;3.85;;;;;;;22.24;70.63;100237.29;1826664;78;20895;-91
2022/07/26 11:07:55;;;;;;;4.25;3.52;;;;;;;22.24;70.41;100235.95;1826470;78;20892;-91
2022/07/26 11:10:35;;;;;;;4.97;4.30;;;;;;;22.25;69.42;100242.44;1826867;78;20891;-91
2022/07/26 11:13:17;;;;;;;5.08;4.67;;;;;;;22.25;68.86;100242.44;1826615;78;21312;-91
2022/07/26 11:15:53;;;;;;;6.53;3.98;;;;;;;22.25;68.89;100239.76;1826697;78;20907;-91
2022/07/26 11:18:26;;;;;;;5.97;4.90;;;;;;;22.24;68.67;100239.45;1826350;78;20923;-88
2022/07/26 11:20:55;;;;;;;5.05;3.85;;;;;;;22.21;68.43;100241.59;1798429;78;21404;-90
2022/07/26 11:23:30;;;;;;;5.33;4.10;;;;;;;22.19;68.99;100237.79;1793926;80;20919;-90
2022/07/26 11:26:10;;;;;;;4.42;2.95;;;;;;;22.21;69.05;100245.61;1794732;80;21233;-91
2022/07/26 11:28:47;;;;;;;4.05;2.85;;;;;;;22.19;68.27;100248.95;1793905;80;20876;-91
2022/07/26 11:31:14;;;;;;;2.50;2.30;;;;;;;22.17;66.47;100241.65;1789322;80;20893;-90
2022/07/26 11:33:44;;;;;;;3.67;2.58;;;;;;;22.14;65.65;100236.98;1794021;80;20998;-91